Station: Smithton  

  Atmospheric Gas Attenuation - ITU Rec 676-11   ----------------- dB/100km -----------------
Date Time Temp RH % AH g/m3 Dew Point Wind Direction Speed kph Gust kph Barometer mB Rainfall Since 9am 24GHz 47GHz 76GHz 122GHz 134GHz 241GHz
07/05 21:30 12 94 10.02 11.1 32 48 1013.6 7 22.7 28.9 46.7 122.9 120.5 415.5
07/05 21:20 11.9 94 9.96 11 30 35 1013.6 6.8 22.6 28.8 46.5 122.4 119.8 413.0
07/05 21:10 11.9 94 9.96 11 32 39 1013.7 6 22.6 28.8 46.5 122.4 119.8 413.1
07/05 21:00 11.8 94 9.89 10.9 32 44 1013.6 5.8 22.5 28.7 46.3 121.7 119.0 410.1
07/05 20:50 11.9 94 9.96 11 32 35 1013.7 5 22.6 28.8 46.5 122.4 119.8 413.1
07/05 20:40 11.8 94 9.89 10.9 28 35 1013.7 4.8 22.5 28.7 46.3 121.8 119.0 410.1
07/05 20:30 11.8 94 9.89 10.9 35 48 1013.7 4.6 22.5 28.7 46.3 121.8 119.0 410.1
07/05 20:20 11.7 94 9.83 10.8 35 41 1013.8 4.6 22.3 28.6 46.1 121.2 118.3 407.7
07/05 20:10 11.6 94 9.77 10.7 30 35 1013.9 4.4 22.2 28.6 45.9 120.7 117.6 405.3
07/05 20:00 11.5 94 9.71 10.6 35 48 1013.7 4.2 22.1 28.5 45.7 120.2 116.9 402.8
07/05 19:50 11.3 94 9.59 10.4 33 39 1013.9 4 21.8 28.3 45.3 119.1 115.5 397.9
07/05 19:40 11.1 94 9.47 10.2 32 41 1013.9 3.8 21.6 28.2 44.9 118.0 114.1 393.0
07/05 19:30 11 94 9.41 10.1 33 46 1014 3.6 21.5 28.1 44.7 117.5 113.4 390.6
07/05 19:20 11 94 9.41 10.1 43 54 1014 3.4 21.5 28.1 44.7 117.5 113.4 390.6
07/05 19:10 10.8 94 9.29 9.9 30 39 1014.1 3.4 21.2 28.0 44.3 116.4 112.0 385.7
07/05 19:00 10.6 94 9.18 9.7 30 48 1014.3 3.2 21.0 27.9 44.0 115.5 110.8 381.3
07/05 18:50 10.4 93 8.97 9.3 22 26 1014.4 2.6 20.6 27.6 43.2 113.4 108.1 371.9
07/05 18:40 10.4 93 8.97 9.3 32 37 1014.4 2.6 20.6 27.6 43.2 113.4 108.1 371.9
07/05 18:30 10.2 93 8.85 9.1 22 35 1014.6 2.2 20.3 27.4 42.8 112.3 106.7 367.1
07/05 18:20 10 92 8.65 8.8 22 30 1014.7 2 19.9 27.2 42.0 110.4 104.2 358.2
07/05 18:10 9.9 92 8.59 8.7 19 24 1014.6 1.8 19.8 27.1 41.8 109.8 103.5 355.7
07/05 18:00 9.8 92 8.54 8.6 22 35 1014.5 1.6 19.7 27.0 41.7 109.4 102.9 353.7
07/05 17:50 9.6 91 8.34 8.2 20 26 1014.6 1.4 19.2 26.8 40.9 107.4 100.4 344.9
07/05 17:40 9.4 91 8.23 8 19 22 1014.8 1.4 19.0 26.6 40.6 106.5 99.2 340.5
07/05 17:30 9.3 91 8.18 7.9 17 26 1015.1 1.4 18.9 26.6 40.4 106.1 98.6 338.6
07/05 17:20 9.3 90 8.09 7.7 19 20 1015.3 1.4 18.7 26.5 40.1 105.1 97.4 334.3
07/05 17:10 9.3 89 8 7.6 15 17 1015.3 1 18.5 26.3 39.7 104.1 96.1 330.0
07/05 17:00 9.3 89 8 7.6 19 26 1015.4 1 18.5 26.3 39.7 104.1 96.2 330.0
07/05 16:50 9.3 89 8 7.6 15 17 1015.6 0.8 18.5 26.3 39.7 104.1 96.2 330.0
07/05 16:40 9.2 88 7.86 7.3 17 19 1015.8 0.8 18.2 26.1 39.2 102.7 94.4 323.8
07/05 16:30 9.3 87 7.82 7.3 20 30 1015.9 0.8 18.1 26.0 39.0 102.2 93.7 321.5
07/05 16:20 9.4 86 7.78 7.2 19 20 1016.1 0.6 18.0 25.9 38.8 101.6 93.1 319.2
07/05 16:10 9.5 85 7.74 7.1 13 15 1016.2 0.6 17.9 25.8 38.6 101.0 92.4 316.9
07/05 16:00 9.6 85 7.79 7.2 17 20 1016.4 0.6 18.0 25.9 38.7 101.5 93.0 319.0
07/05 15:50 9.6 84 7.7 7 17 19 1016.5 0.6 17.9 25.8 38.4 100.5 91.8 314.7
07/05 15:40 9.5 84 7.65 6.9 17 19 1016.5 0.6 17.8 25.7 38.2 100.1 91.2 312.7
07/05 15:30 9.6 83 7.61 6.9 19 24 1016.5 0.6 17.7 25.6 38.0 99.5 90.6 310.4
07/05 15:20 9.6 83 7.61 6.9 19 20 1016.8 0.6 17.7 25.6 38.0 99.5 90.6 310.5
07/05 15:10 9.5 80 7.28 6.2 24 30 1016.8 0.6 17.0 25.1 36.7 96.1 86.3 295.4
07/05 15:00 10.6 76 7.42 6.6 19 33 1016.7 0.6 17.2 25.0 36.8 96.2 86.9 297.7
07/05 14:50 11 74 7.41 6.6 13 13 1016.8 0.2 17.2 24.9 36.5 95.6 86.3 295.8
07/05 14:40 11.2 74 7.5 6.7 11 13 1016.9 0.2 17.4 25.0 36.8 96.4 87.3 299.2
07/05 14:30 10.6 74 7.22 6.2 15 19 1016.9 0.2 16.8 24.7 36.0 94.1 84.3 288.5
07/05 14:20 10.8 73 7.22 6.2 13 17 1017.1 0.2 16.8 24.7 35.9 93.9 84.1 287.8
07/05 14:10 10.8 74 7.32 6.4 15 17 1017.1 0.2 17.0 24.8 36.3 95.0 85.4 292.4
07/05 14:00 10.4 73 7.04 5.8 20 28 1017.2 0.2 16.4 24.5 35.3 92.5 82.1 281.0
07/05 13:50 10.3 75 7.18 6.1 22 28 1017.3 0.2 16.7 24.7 36.0 94.1 84.1 287.9
07/05 13:40 10.3 69 6.61 4.9 24 28 1017.5 0.2 15.5 23.8 33.7 88.1 76.7 261.9
07/05 13:30 10.8 66 6.52 4.7 20 26 1017.4 0.2 15.3 23.6 33.1 86.6 75.0 256.2
07/05 13:20 10.8 64 6.33 4.3 24 28 1017.5 0.2 14.9 23.3 32.4 84.6 72.6 247.8
07/05 13:10 10.6 65 6.35 4.3 22 32 1017.5 0.2 14.9 23.4 32.6 85.1 73.1 249.3
07/05 13:00 10.7 67 6.58 4.8 22 28 1017.5 0.2 15.4 23.7 33.4 87.3 75.9 259.2
07/05 12:50 10.6 66 6.44 4.5 20 22 1017.6 0.2 15.1 23.5 32.9 86.0 74.2 253.3
07/05 12:40 10.6 65 6.35 4.3 26 30 1017.8 0.2 14.9 23.4 32.6 85.1 73.1 249.3
07/05 12:30 10.6 67 6.54 4.7 24 30 1017.8 0.2 15.3 23.7 33.3 87.1 75.5 257.8
07/05 12:20 10.5 68 6.6 4.9 20 24 1017.9 0.2 15.5 23.8 33.6 87.8 76.4 260.9
07/05 12:10 10.3 66 6.32 4.2 26 30 1017.8 0.2 14.9 23.4 32.6 85.1 73.0 248.9
07/05 12:00 10.2 68 6.47 4.6 24 33 1018 0.2 15.2 23.7 33.2 86.8 75.0 256.0
07/05 11:50 10.3 74 7.09 5.9 22 26 1018.1 0.2 16.5 24.6 35.6 93.2 83.0 283.9
07/05 11:40 9.3 76 6.83 5.3 19 24 1018.1 0.2 16.0 24.5 35.0 91.6 80.6 275.5
07/05 11:30 9.2 75 6.7 5 22 32 1018.1 0.2 15.7 24.3 34.6 90.3 79.0 269.8
07/05 11:20 9.4 78 7.06 5.8 20 24 1018.2 0.2 16.5 24.8 35.9 94.0 83.5 285.8
07/05 11:10 9.1 78 6.92 5.5 17 19 1018.2 0.2 16.2 24.7 35.5 92.8 82.0 280.4
07/05 11:00 9 80 7.06 5.7 15 22 1018.2 0.2 16.5 24.9 36.1 94.4 84.0 287.3
07/05 10:50 8.7 82 7.09 5.8 11 13 1018.1 0.2 16.6 25.1 36.3 95.1 84.7 289.7
07/05 10:40 8.2 82 6.87 5.3 17 19 1018 0.2 16.1 24.9 35.7 93.3 82.3 281.2
07/05 10:30 7.5 82 6.57 4.6 19 30 1018.1 0 15.5 24.6 34.8 90.9 79.0 269.6
07/05 10:20 7.4 85 6.76 5 13 17 1018.1 0 15.9 24.9 35.6 93.1 81.6 278.9
07/05 10:10 6.6 86 6.5 4.4 7 7 1018 0 15.4 24.7 34.9 91.2 79.0 269.4
07/05 10:00 6 85 6.17 3.7 0 0 1018 0 14.7 24.3 33.8 88.3 75.1 255.8
07/05 09:50 5.8 85 6.09 3.5 0 0 1017.8 0 14.5 24.2 33.5 87.6 74.2 252.7
07/05 09:40 5.5 84 5.9 3 6 6 1017.7 0 14.1 24.0 32.9 85.9 72.0 244.7
07/05 09:30 5.6 84 5.94 3.1 13 15 1017.8 0 14.2 24.0 33.0 86.2 72.4 246.3
07/05 09:20 5.7 83 5.91 3 13 13 1017.9 0 14.2 24.0 32.9 85.8 71.9 244.6
07/05 09:10 6 82 5.96 3.2 15 15 1017.8 0 14.3 24.0 32.9 86.0 72.3 245.9
07/05 09:00 6.2 82 6.03 3.4 17 20 1017.7 0 14.4 24.0 33.1 86.5 73.0 248.6
07/05 08:50 6.3 81 6 3.3 17 17 1017.6 8.4 14.3 23.9 33.0 86.1 72.5 246.8
07/05 08:40 6.3 81 6 3.3 19 20 1017.6 8.4 14.3 23.9 33.0 86.1 72.5 246.8
07/05 08:30 6.3 80 5.93 3.1 22 32 1017.5 8.4 14.2 23.8 32.7 85.3 71.6 243.6
07/05 08:20 6.8 80 6.12 3.6 26 32 1017.2 8.4 14.6 24.0 33.2 86.8 73.6 250.7
07/05 08:10 6.9 83 6.39 4.2 22 24 1017.3 8.4 15.1 24.4 34.3 89.6 77.1 263.0
07/05 08:00 6.2 85 6.25 3.9 20 28 1017 8.4 14.9 24.3 34.0 88.8 75.9 258.7
07/05 07:50 5.7 85 6.05 3.4 20 22 1016.8 8.4 14.5 24.1 33.4 87.2 73.7 250.9
07/05 07:40 5.5 87 6.11 3.5 20 22 1016.6 8.4 14.6 24.3 33.7 88.0 74.7 254.3
07/05 07:30 4 84 5.35 1.5 17 19 1016.4 8.4 13.0 23.4 31.2 81.4 65.9 223.2
07/05 07:20 4.5 83 5.46 1.9 17 17 1016.2 8.4 13.2 23.5 31.5 82.1 66.9 226.8
07/05 07:10 4.9 82 5.54 2.1 19 19 1015.9 8.4 13.4 23.5 31.6 82.5 67.6 229.3
07/05 07:00 5.4 82 5.73 2.6 17 22 1015.8 8.4 13.8 23.7 32.2 84.0 69.7 236.7
07/05 06:50 5.7 81 5.77 2.7 20 22 1015.9 8.4 13.9 23.7 32.2 84.1 69.9 237.6
07/05 06:40 5.7 80 5.7 2.5 24 28 1015.8 8.4 13.7 23.5 31.9 83.3 69.0 234.4
07/05 06:30 5.6 81 5.73 2.6 24 33 1015.7 8.4 13.8 23.6 32.1 83.7 69.5 236.0
07/05 06:20 5.7 81 5.77 2.7 22 26 1015.5 8.4 13.9 23.6 32.2 84.0 69.9 237.6
07/05 06:10 5.9 81 5.84 2.9 24 26 1015.2 8.4 14.0 23.7 32.4 84.5 70.6 240.1
07/05 06:00 5.5 82 5.76 2.7 22 32 1014.9 8.4 13.8 23.7 32.2 84.1 69.9 237.6
07/05 05:50 5.3 84 5.83 2.8 20 24 1014.8 8.4 14.0 23.8 32.6 85.1 71.0 241.4
07/05 05:40 5.3 83 5.76 2.7 19 20 1015 8.4 13.9 23.7 32.3 84.3 70.1 238.2
07/05 05:30 5.3 81 5.62 2.3 19 22 1014.9 8.4 13.6 23.5 31.7 82.8 68.3 231.7
07/05 05:20 5.2 79 5.44 1.9 19 20 1014.6 8.4 13.2 23.2 31.0 81.0 66.0 223.6
07/05 05:10 5.8 77 5.52 2.1 24 26 1014.4 8.4 13.3 23.2 31.1 81.2 66.5 225.5
07/05 05:00 6.4 75 5.59 2.3 32 39 1014.2 8.4 13.4 23.1 31.2 81.3 66.9 227.0

Last Refresh: 07-May-2026 21:08:42

Bureau of Meteorology